createdAt,value
2022-12-24T00:02:49.416Z,90.00
2022-12-24T00:05:52.646Z,89.75
2022-12-24T00:08:55.432Z,89.82
2022-12-24T00:11:58.367Z,90.02
2022-12-24T00:15:01.222Z,89.82
2022-12-24T00:18:04.117Z,89.52
2022-12-24T00:21:07.339Z,89.45
2022-12-24T00:24:10.631Z,89.37
2022-12-24T00:27:13.423Z,89.29
2022-12-24T00:30:16.435Z,89.46
2022-12-24T00:33:24.234Z,89.57
2022-12-24T00:36:27.642Z,89.68
2022-12-24T00:39:31.204Z,89.88
2022-12-24T00:42:34.043Z,89.87
2022-12-24T00:45:36.817Z,89.52
2022-12-24T00:48:39.537Z,89.78
2022-12-24T00:51:42.442Z,89.44
2022-12-24T00:54:45.205Z,89.15
2022-12-24T00:57:47.954Z,89.03
2022-12-24T01:00:51.032Z,88.99
2022-12-24T01:04:14.612Z,89.17
2022-12-24T01:07:17.455Z,89.16
2022-12-24T01:10:20.823Z,89.27
2022-12-24T01:13:24.100Z,89.31
2022-12-24T01:16:27.153Z,89.17
2022-12-24T01:19:30.243Z,89.23
2022-12-24T01:22:33.042Z,89.32
2022-12-24T01:25:38.627Z,89.11
2022-12-24T01:28:42.250Z,89.15
2022-12-24T01:31:45.151Z,89.91
2022-12-24T01:34:50.181Z,89.49
2022-12-24T01:37:53.018Z,89.69
2022-12-24T01:41:14.708Z,90.05
2022-12-24T01:44:20.610Z,90.74
2022-12-24T01:47:30.447Z,91.50
2022-12-24T01:50:33.287Z,90.34
2022-12-24T01:53:38.658Z,90.28
2022-12-24T01:56:49.144Z,90.46
2022-12-24T01:59:57.962Z,90.42
2022-12-24T02:03:01.011Z,90.66
2022-12-24T02:06:04.928Z,90.91
2022-12-24T02:09:07.815Z,91.26
2022-12-24T02:12:10.761Z,90.60
2022-12-24T02:15:15.566Z,90.70
2022-12-24T02:18:34.079Z,90.87
2022-12-24T02:21:53.627Z,90.23
2022-12-24T02:25:16.759Z,89.98
2022-12-24T02:28:40.745Z,89.71
2022-12-24T02:32:12.370Z,89.81
2022-12-24T02:35:35.624Z,89.92
2022-12-24T02:38:51.977Z,89.70
2022-12-24T02:42:07.327Z,89.78
2022-12-24T02:45:31.698Z,90.34
2022-12-24T02:48:36.413Z,90.06
2022-12-24T02:51:39.233Z,89.91
2022-12-24T02:54:42.310Z,90.35
2022-12-24T02:58:18.743Z,89.94
2022-12-24T03:02:19.788Z,90.24
2022-12-24T03:05:55.286Z,90.17
2022-12-24T03:09:19.864Z,89.87
2022-12-24T03:12:43.040Z,90.08
2022-12-24T03:15:47.153Z,89.77
2022-12-24T03:18:53.377Z,89.97
2022-12-24T03:21:58.121Z,90.06
2022-12-24T03:25:01.563Z,90.21
2022-12-24T03:28:07.380Z,90.63
2022-12-24T03:31:11.725Z,90.65
2022-12-24T03:34:16.151Z,90.73
2022-12-24T03:37:18.939Z,90.79
2022-12-24T03:40:21.788Z,90.37
2022-12-24T03:43:24.678Z,90.37
2022-12-24T03:46:28.251Z,90.42
2022-12-24T03:49:31.110Z,90.62
2022-12-24T03:52:33.984Z,90.57
2022-12-24T03:55:37.895Z,91.06
2022-12-24T03:58:40.771Z,91.46
2022-12-24T04:01:43.676Z,91.40
2022-12-24T04:04:46.593Z,90.89
2022-12-24T04:07:49.426Z,91.08
2022-12-24T04:10:52.305Z,90.86
2022-12-24T04:13:55.177Z,90.76
2022-12-24T04:16:58.081Z,90.68
2022-12-24T04:20:00.944Z,90.62
2022-12-24T04:23:03.826Z,90.78
2022-12-24T04:26:08.866Z,90.45
2022-12-24T04:29:11.782Z,90.51
2022-12-24T04:32:14.915Z,90.62
2022-12-24T04:35:17.750Z,90.82
2022-12-24T04:38:20.519Z,90.73
2022-12-24T04:41:25.139Z,90.67
2022-12-24T04:44:28.083Z,90.49
2022-12-24T04:47:30.972Z,90.27
2022-12-24T04:50:33.840Z,90.24
2022-12-24T04:53:38.095Z,90.28
2022-12-24T04:56:40.950Z,90.31
2022-12-24T04:59:43.800Z,90.24
2022-12-24T05:02:46.679Z,90.15
2022-12-24T05:05:49.632Z,90.02
2022-12-24T05:08:55.952Z,90.47
2022-12-24T05:11:58.855Z,90.25
2022-12-24T05:15:01.678Z,90.46
2022-12-24T05:18:04.640Z,90.36
2022-12-24T05:21:14.583Z,90.37
2022-12-24T05:24:36.510Z,90.39
2022-12-24T05:27:39.573Z,90.28
2022-12-24T05:30:42.371Z,90.45
2022-12-24T05:33:45.889Z,90.14
2022-12-24T05:36:48.676Z,90.12
2022-12-24T05:39:51.526Z,90.09
2022-12-24T05:42:54.376Z,89.98
2022-12-24T05:46:07.469Z,89.93
2022-12-24T05:49:10.481Z,89.91
2022-12-24T05:52:13.352Z,89.53
2022-12-24T05:55:16.220Z,89.41
2022-12-24T05:58:19.024Z,89.42
2022-12-24T06:01:23.292Z,89.84
2022-12-24T06:04:28.956Z,89.86
2022-12-24T06:07:32.202Z,90.17
2022-12-24T06:10:35.072Z,89.94
2022-12-24T06:13:38.448Z,89.93
2022-12-24T06:16:41.442Z,89.88
2022-12-24T06:19:44.676Z,89.71
2022-12-24T06:22:47.538Z,89.75
2022-12-24T06:25:51.418Z,89.63
2022-12-24T06:28:54.277Z,89.83
2022-12-24T06:31:57.204Z,89.89
2022-12-24T06:35:00.137Z,89.83
2022-12-24T06:38:03.002Z,89.62
2022-12-24T06:41:07.627Z,89.86
2022-12-24T06:44:10.595Z,89.59
2022-12-24T06:47:13.407Z,89.30
2022-12-24T06:50:16.362Z,89.14
2022-12-24T06:53:19.298Z,88.88
2022-12-24T06:56:22.252Z,88.58
2022-12-24T06:59:25.261Z,88.56
2022-12-24T07:02:36.361Z,88.34
2022-12-24T07:05:42.587Z,88.11
2022-12-24T07:08:59.518Z,87.85
2022-12-24T07:12:12.587Z,88.07
2022-12-24T07:15:17.028Z,87.95
2022-12-24T07:18:20.093Z,87.95
2022-12-24T07:21:23.171Z,87.92
2022-12-24T07:24:34.608Z,87.71
2022-12-24T07:27:38.691Z,87.47
2022-12-24T07:30:41.618Z,87.35
2022-12-24T07:33:44.634Z,86.96
2022-12-24T07:36:47.659Z,87.00
2022-12-24T07:39:50.544Z,86.83
2022-12-24T07:42:53.492Z,86.60
2022-12-24T07:45:59.535Z,86.29
2022-12-24T07:49:02.436Z,86.57
2022-12-24T07:52:08.826Z,85.94
2022-12-24T07:55:12.248Z,86.23
2022-12-24T07:58:15.302Z,86.26
2022-12-24T08:01:19.523Z,85.81
2022-12-24T08:04:24.180Z,85.18
2022-12-24T08:07:27.304Z,85.07
2022-12-24T08:10:30.208Z,85.12
2022-12-24T08:13:33.148Z,84.40
2022-12-24T08:16:36.340Z,84.48
2022-12-24T08:19:39.373Z,84.45
2022-12-24T08:22:42.272Z,83.99
2022-12-24T08:25:47.070Z,83.91
2022-12-24T08:28:49.961Z,83.50
2022-12-24T08:31:52.883Z,83.49
2022-12-24T08:34:55.847Z,83.41
2022-12-24T08:37:59.112Z,83.20
2022-12-24T08:41:02.033Z,82.90
2022-12-24T08:44:05.159Z,82.57
2022-12-24T08:47:08.275Z,82.42
2022-12-24T08:50:12.498Z,82.28
2022-12-24T08:53:15.521Z,81.91
2022-12-24T08:56:18.478Z,81.98
2022-12-24T08:59:24.134Z,81.84
2022-12-24T09:02:27.178Z,81.67
2022-12-24T09:05:30.244Z,81.55
2022-12-24T09:08:33.592Z,81.14
2022-12-24T09:11:36.481Z,80.94
2022-12-24T09:14:39.478Z,81.27
2022-12-24T09:17:42.562Z,80.80
2022-12-24T09:20:46.978Z,80.59
2022-12-24T09:23:50.229Z,80.32
2022-12-24T09:26:57.668Z,80.15
2022-12-24T09:30:01.103Z,80.07
2022-12-24T09:33:04.142Z,80.12
2022-12-24T09:36:07.693Z,79.89
2022-12-24T09:39:10.516Z,79.56
2022-12-24T09:42:44.423Z,79.46
2022-12-24T09:46:01.381Z,79.67
2022-12-24T09:49:18.453Z,79.38
2022-12-24T09:52:40.572Z,79.27
2022-12-24T09:55:48.693Z,78.48
2022-12-24T09:59:00.110Z,78.40
2022-12-24T10:02:03.121Z,77.52
2022-12-24T10:05:10.255Z,77.20
2022-12-24T10:08:38.069Z,77.36
2022-12-24T10:12:08.847Z,77.95
2022-12-24T10:15:35.098Z,77.72
2022-12-24T10:18:56.983Z,77.54
2022-12-24T10:22:08.857Z,77.87
2022-12-24T10:25:25.575Z,77.55
2022-12-24T10:28:35.327Z,77.98
2022-12-24T10:31:53.315Z,78.22
2022-12-24T10:35:19.465Z,78.32
2022-12-24T10:38:22.549Z,78.33
2022-12-24T10:41:29.890Z,77.81
2022-12-24T10:44:34.733Z,78.08
2022-12-24T10:47:41.102Z,77.69
2022-12-24T10:50:54.746Z,77.56
2022-12-24T10:54:07.194Z,77.24
2022-12-24T10:57:25.718Z,77.32
2022-12-24T11:00:35.486Z,76.82
2022-12-24T11:03:39.977Z,76.81
2022-12-24T11:06:56.425Z,76.48
2022-12-24T11:10:07.678Z,76.35
2022-12-24T11:13:41.519Z,76.09
2022-12-24T11:16:57.695Z,76.04
2022-12-24T11:20:03.525Z,76.00
2022-12-24T11:23:06.988Z,75.55
2022-12-24T11:26:10.204Z,75.69
2022-12-24T11:29:28.422Z,76.00
2022-12-24T11:32:31.313Z,76.46
2022-12-24T11:35:41.519Z,76.29
2022-12-24T11:38:53.352Z,76.47
2022-12-24T11:41:56.207Z,76.53
2022-12-24T11:45:02.187Z,76.65
2022-12-24T11:48:24.635Z,76.21
2022-12-24T11:51:27.858Z,76.11
2022-12-24T11:54:37.219Z,75.83
2022-12-24T11:57:52.181Z,75.91
2022-12-24T12:01:33.315Z,75.91
2022-12-24T12:04:39.200Z,76.14
2022-12-24T12:07:43.208Z,76.25
2022-12-24T12:10:48.498Z,75.65
2022-12-24T12:13:52.570Z,75.45
2022-12-24T12:17:23.433Z,75.62
2022-12-24T12:20:40.667Z,75.95
2022-12-24T12:23:59.016Z,76.08
2022-12-24T12:27:28.079Z,76.01
2022-12-24T12:30:32.149Z,76.12
2022-12-24T12:33:43.480Z,76.22
2022-12-24T12:37:18.241Z,76.62
2022-12-24T12:40:27.446Z,76.39
2022-12-24T12:43:55.437Z,76.69
2022-12-24T12:47:04.572Z,76.81
2022-12-24T12:50:11.420Z,76.98
2022-12-24T12:53:20.620Z,76.65
2022-12-24T12:56:35.757Z,76.62
2022-12-24T12:59:53.204Z,76.24
2022-12-24T13:03:15.886Z,76.12
2022-12-24T13:06:55.994Z,76.15
2022-12-24T13:10:04.774Z,76.04
2022-12-24T13:13:31.314Z,76.17
2022-12-24T13:17:05.304Z,76.22
2022-12-24T13:20:20.672Z,76.39
2022-12-24T13:23:26.571Z,76.50
2022-12-24T13:26:29.561Z,76.83
2022-12-24T13:29:36.930Z,76.99
2022-12-24T13:32:52.084Z,77.32
2022-12-24T13:36:04.513Z,76.95
2022-12-24T13:39:19.838Z,77.18
2022-12-24T13:42:49.796Z,77.44
2022-12-24T13:45:52.741Z,77.52
2022-12-24T13:48:55.667Z,77.49
2022-12-24T13:52:10.828Z,77.60
2022-12-24T13:55:16.457Z,77.91
2022-12-24T13:58:22.772Z,77.58
2022-12-24T14:01:38.629Z,77.80
2022-12-24T14:04:42.512Z,77.27
2022-12-24T14:07:50.437Z,77.06
2022-12-24T14:11:19.806Z,77.04
2022-12-24T14:14:31.629Z,77.27
2022-12-24T14:17:36.346Z,77.09
2022-12-24T14:20:39.322Z,77.48
2022-12-24T14:24:03.165Z,77.46
2022-12-24T14:27:33.740Z,77.50
2022-12-24T14:30:36.576Z,77.96
2022-12-24T14:33:39.435Z,78.24
2022-12-24T14:36:44.740Z,77.85
2022-12-24T14:39:49.427Z,77.98
2022-12-24T14:43:30.001Z,78.04
2022-12-24T14:47:01.823Z,78.63
2022-12-24T14:50:18.958Z,79.78
2022-12-24T14:53:30.750Z,80.72
2022-12-24T14:56:33.666Z,81.11
2022-12-24T14:59:57.001Z,81.41
2022-12-24T15:03:00.162Z,81.66
2022-12-24T15:06:07.021Z,82.58
2022-12-24T15:09:27.286Z,82.46
2022-12-24T15:12:32.339Z,81.75
2022-12-24T15:15:36.599Z,82.25
2022-12-24T15:18:49.112Z,82.21
2022-12-24T15:21:52.928Z,82.49
2022-12-24T15:24:56.228Z,82.34
2022-12-24T15:27:59.644Z,81.95
2022-12-24T15:31:13.097Z,82.36
2022-12-24T15:34:35.177Z,82.38
2022-12-24T15:37:42.651Z,82.18
2022-12-24T15:40:48.991Z,81.88
2022-12-24T15:43:54.657Z,81.83
2022-12-24T15:47:00.026Z,81.83
2022-12-24T15:50:03.598Z,82.32
2022-12-24T15:53:20.377Z,82.48
2022-12-24T15:56:31.625Z,82.34
2022-12-24T15:59:38.753Z,82.67
2022-12-24T16:02:45.865Z,82.55
2022-12-24T16:06:09.720Z,82.92
2022-12-24T16:09:31.095Z,83.06
2022-12-24T16:12:35.119Z,83.21
2022-12-24T16:15:48.909Z,83.17
2022-12-24T16:18:51.713Z,83.05
2022-12-24T16:21:57.905Z,83.09
2022-12-24T16:25:23.077Z,83.64
2022-12-24T16:28:26.487Z,84.02
2022-12-24T16:31:54.566Z,83.96
2022-12-24T16:34:57.627Z,84.23
2022-12-24T16:38:00.548Z,83.93
2022-12-24T16:41:03.431Z,83.68
2022-12-24T16:44:06.386Z,83.84
2022-12-24T16:47:16.091Z,83.96
2022-12-24T16:50:19.315Z,84.37
2022-12-24T16:53:22.869Z,83.85
2022-12-24T16:56:25.642Z,83.53
2022-12-24T16:59:28.673Z,83.68
2022-12-24T17:02:31.672Z,83.63
2022-12-24T17:05:38.720Z,83.50
2022-12-24T17:08:41.661Z,83.08
2022-12-24T17:11:44.474Z,83.03
2022-12-24T17:14:47.365Z,83.26
2022-12-24T17:17:50.239Z,83.12
2022-12-24T17:21:01.556Z,82.89
2022-12-24T17:24:04.765Z,82.93
2022-12-24T17:27:07.692Z,82.82
2022-12-24T17:30:11.944Z,82.84
2022-12-24T17:33:15.234Z,82.81
2022-12-24T17:36:19.626Z,82.84
2022-12-24T17:39:27.721Z,82.93
2022-12-24T17:42:31.166Z,82.94
2022-12-24T17:45:34.181Z,83.11
2022-12-24T17:48:37.475Z,83.07
2022-12-24T17:51:45.273Z,83.48
2022-12-24T17:54:49.025Z,83.46
2022-12-24T17:57:51.919Z,83.63
2022-12-24T18:00:55.775Z,83.68
2022-12-24T18:04:01.224Z,84.12
2022-12-24T18:07:04.242Z,83.66
2022-12-24T18:10:08.025Z,83.40
2022-12-24T18:13:17.330Z,83.60
2022-12-24T18:16:25.878Z,83.26
2022-12-24T18:19:28.905Z,83.68
2022-12-24T18:22:31.894Z,83.64
2022-12-24T18:25:34.728Z,83.33
2022-12-24T18:28:38.463Z,83.25
2022-12-24T18:31:41.750Z,83.35
2022-12-24T18:34:44.688Z,83.36
2022-12-24T18:37:47.697Z,83.57
2022-12-24T18:40:50.609Z,83.58
2022-12-24T18:43:54.253Z,83.61
2022-12-24T18:46:57.114Z,83.88
2022-12-24T18:50:00.055Z,84.02
2022-12-24T18:53:04.268Z,84.64
2022-12-24T18:56:15.913Z,84.37
2022-12-24T18:59:24.036Z,84.38
2022-12-24T19:03:26.730Z,84.58
2022-12-24T19:06:30.581Z,84.46
2022-12-24T19:09:33.425Z,84.01
2022-12-24T19:12:36.232Z,83.97
2022-12-24T19:15:45.410Z,83.94
2022-12-24T19:18:48.372Z,83.98
2022-12-24T19:21:51.988Z,84.23
2022-12-24T19:24:54.867Z,83.99
2022-12-24T19:27:57.633Z,84.50
2022-12-24T19:31:09.325Z,84.47
2022-12-24T19:34:12.224Z,84.57
2022-12-24T19:37:15.221Z,84.67
2022-12-24T19:40:18.139Z,84.56
2022-12-24T19:43:20.991Z,84.33
2022-12-24T19:46:29.497Z,84.05
2022-12-24T19:49:32.533Z,84.00
2022-12-24T19:52:35.296Z,84.32
2022-12-24T19:55:38.106Z,84.34
2022-12-24T19:58:40.941Z,84.10
2022-12-24T20:01:44.428Z,84.41
2022-12-24T20:04:47.518Z,84.47
2022-12-24T20:07:50.570Z,84.22
2022-12-24T20:10:53.591Z,84.13
2022-12-24T20:14:01.980Z,83.82
2022-12-24T20:17:04.863Z,83.74
2022-12-24T20:20:08.300Z,83.90
2022-12-24T20:23:11.268Z,83.82
2022-12-24T20:26:17.280Z,83.43
2022-12-24T20:29:20.129Z,83.30
2022-12-24T20:32:22.916Z,83.30
2022-12-24T20:35:25.813Z,83.36
2022-12-24T20:38:28.623Z,83.57
2022-12-24T20:41:32.677Z,83.57
2022-12-24T20:44:35.584Z,83.70
2022-12-24T20:47:39.414Z,83.47
2022-12-24T20:50:42.315Z,83.59
2022-12-24T20:53:46.515Z,83.54
2022-12-24T20:56:57.750Z,83.91
2022-12-24T21:00:02.643Z,83.74
2022-12-24T21:03:05.744Z,83.69
2022-12-24T21:06:09.452Z,83.71
2022-12-24T21:09:12.527Z,83.66
2022-12-24T21:12:34.080Z,83.60
2022-12-24T21:15:42.536Z,83.96
2022-12-24T21:18:45.383Z,84.07
2022-12-24T21:21:48.953Z,84.27
2022-12-24T21:24:52.039Z,84.04
2022-12-24T21:27:55.727Z,83.73
2022-12-24T21:30:58.686Z,84.00
2022-12-24T21:34:03.497Z,83.88
2022-12-24T21:37:08.507Z,84.00
2022-12-24T21:40:12.137Z,84.28
2022-12-24T21:43:14.963Z,84.30
2022-12-24T21:46:23.241Z,84.26
2022-12-24T21:49:44.851Z,84.17
2022-12-24T21:52:49.200Z,83.98
2022-12-24T21:55:52.868Z,83.65
2022-12-24T21:58:55.701Z,83.75
2022-12-24T22:01:59.234Z,83.82
2022-12-24T22:05:02.254Z,83.89
2022-12-24T22:08:23.833Z,83.63
2022-12-24T22:11:50.259Z,83.44
2022-12-24T22:14:56.911Z,83.49
2022-12-24T22:17:59.839Z,83.31
2022-12-24T22:21:02.898Z,83.40
2022-12-24T22:24:06.398Z,83.60
2022-12-24T22:27:09.323Z,83.36
2022-12-24T22:30:12.464Z,83.44
2022-12-24T22:33:15.349Z,83.37
2022-12-24T22:36:18.101Z,83.53
2022-12-24T22:39:21.222Z,83.16
2022-12-24T22:42:24.018Z,83.29
2022-12-24T22:45:27.003Z,83.14
2022-12-24T22:48:29.831Z,82.97
2022-12-24T22:51:32.659Z,82.80
2022-12-24T22:54:36.538Z,82.90
2022-12-24T22:57:39.333Z,83.03
2022-12-24T23:00:44.565Z,83.22
2022-12-24T23:03:47.472Z,83.27
2022-12-24T23:06:50.541Z,83.34
2022-12-24T23:09:53.438Z,83.33
2022-12-24T23:13:15.568Z,83.18
2022-12-24T23:16:18.607Z,83.12
2022-12-24T23:19:21.458Z,82.87
2022-12-24T23:22:24.332Z,82.76
2022-12-24T23:25:27.276Z,82.95
2022-12-24T23:28:30.182Z,83.04
2022-12-24T23:31:35.024Z,83.36
2022-12-24T23:34:38.181Z,83.34
2022-12-24T23:37:41.127Z,83.34
2022-12-24T23:40:43.991Z,83.43
2022-12-24T23:43:47.633Z,83.31
2022-12-24T23:46:50.574Z,83.17
2022-12-24T23:49:53.428Z,83.38
2022-12-24T23:52:56.335Z,83.32
2022-12-24T23:55:59.211Z,83.56
2022-12-24T23:59:02.814Z,83.47
